sensor_id;sensor_type;location;lat;lon;timestamp;pressure;altitude;pressure_sealevel;temperature;humidity
74163;BME280;62515;52.758;5.076;2023-06-22T00:01:33;102106.91;;;14.99;100.00
74163;BME280;62515;52.758;5.076;2023-06-22T00:04:00;102106.81;;;14.88;100.00
74163;BME280;62515;52.758;5.076;2023-06-22T00:06:27;102100.38;;;14.90;100.00
74163;BME280;62515;52.758;5.076;2023-06-22T00:08:55;102107.34;;;14.80;100.00
74163;BME280;62515;52.758;5.076;2023-06-22T00:11:22;102117.31;;;14.78;100.00
74163;BME280;62515;52.758;5.076;2023-06-22T00:13:49;102120.84;;;14.79;100.00
74163;BME280;62515;52.758;5.076;2023-06-22T00:16:16;102112.16;;;14.75;100.00
74163;BME280;62515;52.758;5.076;2023-06-22T00:18:42;102109.47;;;14.75;100.00
74163;BME280;62515;52.758;5.076;2023-06-22T00:21:09;102125.13;;;14.69;100.00
74163;BME280;62515;52.758;5.076;2023-06-22T00:23:36;102115.78;;;14.74;100.00
74163;BME280;62515;52.758;5.076;2023-06-22T00:26:04;102108.53;;;14.89;100.00
74163;BME280;62515;52.758;5.076;2023-06-22T00:28:31;102120.53;;;14.83;100.00
74163;BME280;62515;52.758;5.076;2023-06-22T00:31:00;102118.91;;;14.81;100.00
74163;BME280;62515;52.758;5.076;2023-06-22T00:33:27;102118.25;;;14.77;100.00
74163;BME280;62515;52.758;5.076;2023-06-22T00:35:54;102097.78;;;14.63;100.00
74163;BME280;62515;52.758;5.076;2023-06-22T00:38:21;102118.41;;;14.88;100.00
74163;BME280;62515;52.758;5.076;2023-06-22T00:40:48;102120.72;;;14.93;100.00
74163;BME280;62515;52.758;5.076;2023-06-22T00:43:16;102123.09;;;14.85;100.00
74163;BME280;62515;52.758;5.076;2023-06-22T00:45:43;102124.94;;;14.84;100.00
74163;BME280;62515;52.758;5.076;2023-06-22T00:48:09;102120.09;;;14.89;100.00
74163;BME280;62515;52.758;5.076;2023-06-22T00:50:39;102112.16;;;15.00;100.00
74163;BME280;62515;52.758;5.076;2023-06-22T00:53:08;102098.13;;;14.97;100.00
74163;BME280;62515;52.758;5.076;2023-06-22T00:55:38;102121.50;;;15.07;100.00
74163;BME280;62515;52.758;5.076;2023-06-22T00:58:08;102118.59;;;14.98;100.00
74163;BME280;62515;52.758;5.076;2023-06-22T01:00:37;102117.31;;;15.03;100.00
74163;BME280;62515;52.758;5.076;2023-06-22T01:03:04;102107.88;;;15.10;100.00
74163;BME280;62515;52.758;5.076;2023-06-22T01:05:31;102120.09;;;15.27;100.00
74163;BME280;62515;52.758;5.076;2023-06-22T01:08:04;102118.72;;;15.22;100.00
74163;BME280;62515;52.758;5.076;2023-06-22T01:10:37;102120.63;;;15.19;100.00
74163;BME280;62515;52.758;5.076;2023-06-22T01:13:07;102118.91;;;15.18;100.00
74163;BME280;62515;52.758;5.076;2023-06-22T01:15:45;102109.81;;;15.08;100.00
74163;BME280;62515;52.758;5.076;2023-06-22T01:18:13;102112.81;;;15.16;100.00
74163;BME280;62515;52.758;5.076;2023-06-22T01:20:43;102115.50;;;15.16;100.00
74163;BME280;62515;52.758;5.076;2023-06-22T01:23:14;102109.59;;;15.11;100.00
74163;BME280;62515;52.758;5.076;2023-06-22T01:25:46;102107.47;;;15.04;100.00
74163;BME280;62515;52.758;5.076;2023-06-22T01:28:33;102109.38;;;14.89;100.00
74163;BME280;62515;52.758;5.076;2023-06-22T01:31:02;102115.59;;;14.90;100.00
74163;BME280;62515;52.758;5.076;2023-06-22T01:33:31;102098.47;;;14.92;100.00
74163;BME280;62515;52.758;5.076;2023-06-22T01:36:00;102087.91;;;14.89;100.00
74163;BME280;62515;52.758;5.076;2023-06-22T01:38:29;102102.41;;;14.99;100.00
74163;BME280;62515;52.758;5.076;2023-06-22T01:40:57;102102.41;;;14.99;100.00
74163;BME280;62515;52.758;5.076;2023-06-22T01:43:25;102101.53;;;14.99;100.00
74163;BME280;62515;52.758;5.076;2023-06-22T01:45:56;102108.09;;;15.07;100.00
74163;BME280;62515;52.758;5.076;2023-06-22T01:48:23;102103.81;;;15.17;100.00
74163;BME280;62515;52.758;5.076;2023-06-22T01:50:50;102111.06;;;15.28;100.00
74163;BME280;62515;52.758;5.076;2023-06-22T01:53:17;102101.66;;;15.23;100.00
74163;BME280;62515;52.758;5.076;2023-06-22T01:55:44;102110.09;;;15.29;100.00
74163;BME280;62515;52.758;5.076;2023-06-22T01:58:11;102118.13;;;15.42;100.00
74163;BME280;62515;52.758;5.076;2023-06-22T02:00:40;102106.13;;;15.35;100.00
74163;BME280;62515;52.758;5.076;2023-06-22T02:03:15;102097.97;;;15.36;100.00
74163;BME280;62515;52.758;5.076;2023-06-22T02:05:48;102108.72;;;15.36;100.00
74163;BME280;62515;52.758;5.076;2023-06-22T02:08:19;102100.25;;;15.30;100.00
74163;BME280;62515;52.758;5.076;2023-06-22T02:10:48;102106.13;;;15.35;100.00
74163;BME280;62515;52.758;5.076;2023-06-22T02:13:15;102099.94;;;15.34;100.00
74163;BME280;62515;52.758;5.076;2023-06-22T02:15:43;102098.66;;;15.27;100.00
74163;BME280;62515;52.758;5.076;2023-06-22T02:18:13;102109.59;;;15.24;100.00
74163;BME280;62515;52.758;5.076;2023-06-22T02:20:40;102106.06;;;15.24;100.00
74163;BME280;62515;52.758;5.076;2023-06-22T02:23:08;102094.97;;;15.28;100.00
74163;BME280;62515;52.758;5.076;2023-06-22T02:25:35;102097.13;;;15.36;100.00
74163;BME280;62515;52.758;5.076;2023-06-22T02:28:03;102091.97;;;15.33;100.00
74163;BME280;62515;52.758;5.076;2023-06-22T02:30:30;102086.16;;;15.39;100.00
74163;BME280;62515;52.758;5.076;2023-06-22T02:32:58;102091.94;;;15.45;100.00
74163;BME280;62515;52.758;5.076;2023-06-22T02:35:28;102086.38;;;15.36;100.00
74163;BME280;62515;52.758;5.076;2023-06-22T02:37:54;102092.19;;;15.30;100.00
74163;BME280;62515;52.758;5.076;2023-06-22T02:40:21;102086.84;;;15.30;100.00
74163;BME280;62515;52.758;5.076;2023-06-22T02:42:48;102085.75;;;15.32;100.00
74163;BME280;62515;52.758;5.076;2023-06-22T02:45:15;102093.69;;;15.34;100.00
74163;BME280;62515;52.758;5.076;2023-06-22T02:47:42;102089.00;;;15.25;100.00
74163;BME280;62515;52.758;5.076;2023-06-22T02:50:11;102089.59;;;15.28;100.00
74163;BME280;62515;52.758;5.076;2023-06-22T02:52:39;102103.75;;;15.43;100.00
74163;BME280;62515;52.758;5.076;2023-06-22T02:55:07;102099.47;;;15.40;100.00
74163;BME280;62515;52.758;5.076;2023-06-22T02:57:34;102093.38;;;15.26;100.00
74163;BME280;62515;52.758;5.076;2023-06-22T03:00:03;102095.53;;;15.21;100.00
74163;BME280;62515;52.758;5.076;2023-06-22T03:02:30;102098.53;;;15.16;100.00
74163;BME280;62515;52.758;5.076;2023-06-22T03:04:57;102093.31;;;15.14;100.00
74163;BME280;62515;52.758;5.076;2023-06-22T03:07:24;102083.31;;;15.16;100.00
74163;BME280;62515;52.758;5.076;2023-06-22T03:09:53;102079.66;;;15.17;100.00
74163;BME280;62515;52.758;5.076;2023-06-22T03:12:20;102085.56;;;15.23;100.00
74163;BME280;62515;52.758;5.076;2023-06-22T03:14:52;102075.47;;;15.26;100.00
74163;BME280;62515;52.758;5.076;2023-06-22T03:17:20;102080.06;;;15.37;100.00
74163;BME280;62515;52.758;5.076;2023-06-22T03:19:47;102076.72;;;15.46;100.00
74163;BME280;62515;52.758;5.076;2023-06-22T03:22:13;102068.16;;;15.41;100.00
74163;BME280;62515;52.758;5.076;2023-06-22T03:24:40;102070.50;;;15.45;100.00
74163;BME280;62515;52.758;5.076;2023-06-22T03:27:08;102073.28;;;15.44;100.00
74163;BME280;62515;52.758;5.076;2023-06-22T03:29:35;102078.88;;;15.41;100.00
74163;BME280;62515;52.758;5.076;2023-06-22T03:32:03;102061.06;;;15.40;100.00
74163;BME280;62515;52.758;5.076;2023-06-22T03:34:30;102068.88;;;15.43;100.00
74163;BME280;62515;52.758;5.076;2023-06-22T03:36:57;102080.56;;;15.42;100.00
74163;BME280;62515;52.758;5.076;2023-06-22T03:39:23;102064.72;;;15.39;100.00
74163;BME280;62515;52.758;5.076;2023-06-22T03:41:50;102082.84;;;15.48;100.00
74163;BME280;62515;52.758;5.076;2023-06-22T03:44:19;102082.22;;;15.57;100.00
74163;BME280;62515;52.758;5.076;2023-06-22T03:46:45;102079.28;;;15.60;100.00
74163;BME280;62515;52.758;5.076;2023-06-22T03:49:12;102082.72;;;15.62;100.00
74163;BME280;62515;52.758;5.076;2023-06-22T03:51:39;102081.75;;;15.63;100.00
74163;BME280;62515;52.758;5.076;2023-06-22T03:54:06;102087.63;;;15.68;100.00
74163;BME280;62515;52.758;5.076;2023-06-22T03:56:32;102083.31;;;15.78;100.00
74163;BME280;62515;52.758;5.076;2023-06-22T03:58:59;102088.66;;;15.78;100.00
74163;BME280;62515;52.758;5.076;2023-06-22T04:01:27;102082.13;;;15.82;100.00
74163;BME280;62515;52.758;5.076;2023-06-22T04:03:54;102070.19;;;15.86;100.00
74163;BME280;62515;52.758;5.076;2023-06-22T04:06:21;102065.94;;;15.95;100.00
74163;BME280;62515;52.758;5.076;2023-06-22T04:08:48;102054.13;;;15.97;100.00
74163;BME280;62515;52.758;5.076;2023-06-22T04:11:15;102061.69;;;16.03;100.00
74163;BME280;62515;52.758;5.076;2023-06-22T04:13:42;102059.56;;;16.08;100.00
74163;BME280;62515;52.758;5.076;2023-06-22T04:16:08;102056.50;;;16.13;100.00
74163;BME280;62515;52.758;5.076;2023-06-22T04:18:36;102056.25;;;16.16;100.00
74163;BME280;62515;52.758;5.076;2023-06-22T04:21:04;102064.31;;;16.16;100.00
74163;BME280;62515;52.758;5.076;2023-06-22T04:23:31;102059.34;;;16.22;100.00
74163;BME280;62515;52.758;5.076;2023-06-22T04:25:57;102066.09;;;16.28;100.00
74163;BME280;62515;52.758;5.076;2023-06-22T04:28:24;102062.94;;;16.34;100.00
74163;BME280;62515;52.758;5.076;2023-06-22T04:30:53;102075.28;;;16.37;100.00
74163;BME280;62515;52.758;5.076;2023-06-22T04:33:20;102072.25;;;16.41;100.00
74163;BME280;62515;52.758;5.076;2023-06-22T04:35:48;102072.75;;;16.46;100.00
74163;BME280;62515;52.758;5.076;2023-06-22T04:38:15;102064.44;;;16.49;100.00
74163;BME280;62515;52.758;5.076;2023-06-22T04:40:42;102074.22;;;16.50;100.00
74163;BME280;62515;52.758;5.076;2023-06-22T04:43:08;102067.66;;;16.54;100.00
74163;BME280;62515;52.758;5.076;2023-06-22T04:45:35;102060.25;;;16.58;100.00
74163;BME280;62515;52.758;5.076;2023-06-22T04:48:02;102061.69;;;16.62;100.00
74163;BME280;62515;52.758;5.076;2023-06-22T04:50:29;102063.44;;;16.74;100.00
74163;BME280;62515;52.758;5.076;2023-06-22T04:52:58;102065.41;;;16.94;100.00
74163;BME280;62515;52.758;5.076;2023-06-22T04:55:24;102055.88;;;17.01;100.00
74163;BME280;62515;52.758;5.076;2023-06-22T04:57:51;102064.06;;;17.11;100.00
74163;BME280;62515;52.758;5.076;2023-06-22T05:00:19;102058.69;;;17.22;100.00
74163;BME280;62515;52.758;5.076;2023-06-22T05:02:46;102059.31;;;17.25;100.00
74163;BME280;62515;52.758;5.076;2023-06-22T05:05:13;102047.09;;;17.21;100.00
74163;BME280;62515;52.758;5.076;2023-06-22T05:07:42;102056.59;;;17.37;100.00
74163;BME280;62515;52.758;5.076;2023-06-22T05:10:11;102056.09;;;17.43;100.00
74163;BME280;62515;52.758;5.076;2023-06-22T05:12:38;102056.22;;;17.63;100.00
74163;BME280;62515;52.758;5.076;2023-06-22T05:15:06;102057.41;;;17.82;100.00
74163;BME280;62515;52.758;5.076;2023-06-22T05:17:33;102061.03;;;17.92;100.00
74163;BME280;62515;52.758;5.076;2023-06-22T05:20:00;102057.41;;;18.13;100.00
74163;BME280;62515;52.758;5.076;2023-06-22T05:22:27;102054.91;;;18.21;100.00
74163;BME280;62515;52.758;5.076;2023-06-22T05:24:54;102057.09;;;18.27;100.00
74163;BME280;62515;52.758;5.076;2023-06-22T05:27:23;102045.41;;;18.38;100.00
74163;BME280;62515;52.758;5.076;2023-06-22T05:29:50;102048.97;;;18.39;100.00
74163;BME280;62515;52.758;5.076;2023-06-22T05:32:17;102051.66;;;18.39;100.00
74163;BME280;62515;52.758;5.076;2023-06-22T05:34:44;102039.38;;;18.46;100.00
74163;BME280;62515;52.758;5.076;2023-06-22T05:37:11;102030.69;;;18.42;100.00
74163;BME280;62515;52.758;5.076;2023-06-22T05:39:37;102040.97;;;18.69;100.00
74163;BME280;62515;52.758;5.076;2023-06-22T05:42:05;102040.56;;;18.73;100.00
74163;BME280;62515;52.758;5.076;2023-06-22T05:44:36;102034.50;;;18.81;100.00
74163;BME280;62515;52.758;5.076;2023-06-22T05:47:03;102024.44;;;18.83;100.00
74163;BME280;62515;52.758;5.076;2023-06-22T05:49:30;102034.47;;;19.02;100.00
74163;BME280;62515;52.758;5.076;2023-06-22T05:51:57;102035.41;;;19.21;100.00
74163;BME280;62515;52.758;5.076;2023-06-22T05:54:24;102035.72;;;19.28;100.00
74163;BME280;62515;52.758;5.076;2023-06-22T05:56:50;102036.81;;;19.25;100.00
74163;BME280;62515;52.758;5.076;2023-06-22T05:59:17;102039.97;;;19.30;100.00
74163;BME280;62515;52.758;5.076;2023-06-22T06:01:45;102036.00;;;19.34;100.00
74163;BME280;62515;52.758;5.076;2023-06-22T06:04:12;102035.75;;;19.38;100.00
74163;BME280;62515;52.758;5.076;2023-06-22T06:06:39;102030.81;;;19.52;100.00
74163;BME280;62515;52.758;5.076;2023-06-22T06:09:06;102026.16;;;19.64;100.00
74163;BME280;62515;52.758;5.076;2023-06-22T06:11:33;102028.59;;;19.67;100.00
74163;BME280;62515;52.758;5.076;2023-06-22T06:14:00;102033.16;;;19.76;100.00
74163;BME280;62515;52.758;5.076;2023-06-22T06:16:26;102032.59;;;20.01;100.00
74163;BME280;62515;52.758;5.076;2023-06-22T06:18:54;102015.41;;;20.12;100.00
74163;BME280;62515;52.758;5.076;2023-06-22T06:21:21;101999.88;;;20.04;100.00
74163;BME280;62515;52.758;5.076;2023-06-22T06:23:48;101991.38;;;19.80;100.00
74163;BME280;62515;52.758;5.076;2023-06-22T06:26:15;102021.63;;;19.93;100.00
74163;BME280;62515;52.758;5.076;2023-06-22T06:28:42;102014.25;;;19.95;100.00
74163;BME280;62515;52.758;5.076;2023-06-22T06:31:09;101993.34;;;20.07;100.00
74163;BME280;62515;52.758;5.076;2023-06-22T06:33:36;102011.84;;;20.30;100.00
74163;BME280;62515;52.758;5.076;2023-06-22T06:36:04;102021.38;;;20.34;100.00
74163;BME280;62515;52.758;5.076;2023-06-22T06:38:31;102006.44;;;20.30;100.00
74163;BME280;62515;52.758;5.076;2023-06-22T06:40:58;102015.13;;;20.34;100.00
74163;BME280;62515;52.758;5.076;2023-06-22T06:43:25;102010.88;;;20.31;100.00
74163;BME280;62515;52.758;5.076;2023-06-22T06:45:52;102019.25;;;20.19;100.00
74163;BME280;62515;52.758;5.076;2023-06-22T06:48:19;102021.69;;;20.31;100.00
74163;BME280;62515;52.758;5.076;2023-06-22T06:50:46;102016.38;;;20.20;100.00
74163;BME280;62515;52.758;5.076;2023-06-22T06:53:14;102020.50;;;20.24;100.00
74163;BME280;62515;52.758;5.076;2023-06-22T06:55:40;101998.31;;;20.21;100.00
74163;BME280;62515;52.758;5.076;2023-06-22T06:58:07;102012.81;;;20.39;100.00
74163;BME280;62515;52.758;5.076;2023-06-22T07:00:34;102013.09;;;20.46;100.00
74163;BME280;62515;52.758;5.076;2023-06-22T07:03:01;102013.38;;;20.52;100.00
74163;BME280;62515;52.758;5.076;2023-06-22T07:05:28;102006.97;;;20.53;100.00
74163;BME280;62515;52.758;5.076;2023-06-22T07:07:54;102008.13;;;20.51;100.00
74163;BME280;62515;52.758;5.076;2023-06-22T07:10:22;102001.66;;;20.71;100.00
74163;BME280;62515;52.758;5.076;2023-06-22T07:12:49;101997.94;;;20.72;100.00
74163;BME280;62515;52.758;5.076;2023-06-22T07:15:16;101995.22;;;20.72;100.00
74163;BME280;62515;52.758;5.076;2023-06-22T07:17:43;102004.16;;;20.82;100.00
74163;BME280;62515;52.758;5.076;2023-06-22T07:20:10;102000.41;;;21.02;100.00
74163;BME280;62515;52.758;5.076;2023-06-22T07:22:38;101992.28;;;21.02;100.00
74163;BME280;62515;52.758;5.076;2023-06-22T07:25:06;101998.06;;;21.07;100.00
74163;BME280;62515;52.758;5.076;2023-06-22T07:27:34;101993.69;;;21.33;100.00
74163;BME280;62515;52.758;5.076;2023-06-22T07:30:02;101996.69;;;21.58;100.00
74163;BME280;62515;52.758;5.076;2023-06-22T07:32:28;101994.16;;;21.74;100.00
74163;BME280;62515;52.758;5.076;2023-06-22T07:34:55;101993.16;;;21.75;100.00
74163;BME280;62515;52.758;5.076;2023-06-22T07:37:22;101988.47;;;21.95;100.00
74163;BME280;62515;52.758;5.076;2023-06-22T07:39:49;101989.91;;;21.89;100.00
74163;BME280;62515;52.758;5.076;2023-06-22T07:42:15;101995.56;;;21.96;100.00
74163;BME280;62515;52.758;5.076;2023-06-22T07:44:44;101989.81;;;22.16;100.00
74163;BME280;62515;52.758;5.076;2023-06-22T07:47:10;101975.31;;;22.51;100.00
74163;BME280;62515;52.758;5.076;2023-06-22T07:49:37;101987.59;;;22.81;100.00
74163;BME280;62515;52.758;5.076;2023-06-22T07:52:05;101983.28;;;23.04;100.00
74163;BME280;62515;52.758;5.076;2023-06-22T07:54:32;101991.31;;;23.22;100.00
74163;BME280;62515;52.758;5.076;2023-06-22T07:56:59;101994.56;;;23.75;100.00
74163;BME280;62515;52.758;5.076;2023-06-22T07:59:26;102000.31;;;23.14;100.00
74163;BME280;62515;52.758;5.076;2023-06-22T08:01:55;101991.06;;;23.41;100.00
74163;BME280;62515;52.758;5.076;2023-06-22T08:04:22;101983.25;;;22.96;100.00
74163;BME280;62515;52.758;5.076;2023-06-22T08:06:48;101995.06;;;23.63;100.00
74163;BME280;62515;52.758;5.076;2023-06-22T08:09:15;101984.88;;;23.73;100.00
74163;BME280;62515;52.758;5.076;2023-06-22T08:11:42;101988.97;;;23.85;100.00
74163;BME280;62515;52.758;5.076;2023-06-22T08:14:09;101986.25;;;23.85;100.00
74163;BME280;62515;52.758;5.076;2023-06-22T08:16:35;101987.97;;;24.02;100.00
74163;BME280;62515;52.758;5.076;2023-06-22T08:19:03;101987.47;;;24.23;100.00
74163;BME280;62515;52.758;5.076;2023-06-22T08:21:30;101978.09;;;24.58;100.00
74163;BME280;62515;52.758;5.076;2023-06-22T08:23:57;101981.84;;;24.08;100.00
74163;BME280;62515;52.758;5.076;2023-06-22T08:26:24;101981.63;;;24.82;100.00
74163;BME280;62515;52.758;5.076;2023-06-22T08:28:50;101983.16;;;24.69;100.00
74163;BME280;62515;52.758;5.076;2023-06-22T08:31:17;101991.25;;;25.09;100.00
74163;BME280;62515;52.758;5.076;2023-06-22T08:33:44;101984.41;;;25.44;100.00
74163;BME280;62515;52.758;5.076;2023-06-22T08:36:17;101982.09;;;26.17;100.00
74163;BME280;62515;52.758;5.076;2023-06-22T08:38:43;101982.38;;;26.22;100.00
74163;BME280;62515;52.758;5.076;2023-06-22T08:41:10;101977.41;;;25.80;100.00
74163;BME280;62515;52.758;5.076;2023-06-22T08:43:37;101972.53;;;26.13;100.00
74163;BME280;62515;52.758;5.076;2023-06-22T08:46:04;101970.38;;;26.46;100.00
74163;BME280;62515;52.758;5.076;2023-06-22T08:48:33;101947.88;;;26.59;100.00
74163;BME280;62515;52.758;5.076;2023-06-22T08:51:06;101923.72;;;26.18;100.00
74163;BME280;62515;52.758;5.076;2023-06-22T08:53:35;101947.78;;;25.77;100.00
74163;BME280;62515;52.758;5.076;2023-06-22T08:56:05;101923.94;;;25.94;100.00
74163;BME280;62515;52.758;5.076;2023-06-22T08:58:34;101944.81;;;26.01;100.00
74163;BME280;62515;52.758;5.076;2023-06-22T09:01:02;101946.78;;;25.93;100.00
74163;BME280;62515;52.758;5.076;2023-06-22T09:03:33;101956.34;;;26.12;100.00
74163;BME280;62515;52.758;5.076;2023-06-22T09:06:00;101953.63;;;25.66;100.00
74163;BME280;62515;52.758;5.076;2023-06-22T09:08:26;101948.91;;;25.29;100.00
74163;BME280;62515;52.758;5.076;2023-06-22T09:10:55;101943.59;;;25.67;100.00
74163;BME280;62515;52.758;5.076;2023-06-22T09:13:21;101963.38;;;26.81;100.00
74163;BME280;62515;52.758;5.076;2023-06-22T09:15:48;101932.91;;;26.55;100.00
74163;BME280;62515;52.758;5.076;2023-06-22T09:18:15;101948.34;;;26.33;100.00
74163;BME280;62515;52.758;5.076;2023-06-22T09:20:42;101959.72;;;26.51;100.00
74163;BME280;62515;52.758;5.076;2023-06-22T09:23:09;101968.47;;;26.09;100.00
74163;BME280;62515;52.758;5.076;2023-06-22T09:25:36;101962.84;;;26.33;100.00
74163;BME280;62515;52.758;5.076;2023-06-22T09:28:04;101953.81;;;27.06;100.00
74163;BME280;62515;52.758;5.076;2023-06-22T09:30:31;101944.19;;;26.14;100.00
74163;BME280;62515;52.758;5.076;2023-06-22T09:32:58;101954.88;;;27.98;100.00
74163;BME280;62515;52.758;5.076;2023-06-22T09:35:25;101939.63;;;27.46;100.00
74163;BME280;62515;52.758;5.076;2023-06-22T09:37:51;101950.47;;;27.25;100.00
74163;BME280;62515;52.758;5.076;2023-06-22T09:40:21;101953.13;;;27.19;100.00
74163;BME280;62515;52.758;5.076;2023-06-22T09:42:48;101949.16;;;27.93;100.00
74163;BME280;62515;52.758;5.076;2023-06-22T09:45:16;101946.81;;;27.69;100.00
74163;BME280;62515;52.758;5.076;2023-06-22T09:47:43;101958.25;;;27.58;100.00
74163;BME280;62515;52.758;5.076;2023-06-22T09:50:10;101950.47;;;27.25;100.00
74163;BME280;62515;52.758;5.076;2023-06-22T09:52:37;101958.41;;;26.76;100.00
74163;BME280;62515;52.758;5.076;2023-06-22T09:55:07;101952.63;;;27.44;100.00
74163;BME280;62515;52.758;5.076;2023-06-22T09:57:34;101942.59;;;26.42;100.00
74163;BME280;62515;52.758;5.076;2023-06-22T10:00:01;101940.16;;;26.47;100.00
74163;BME280;62515;52.758;5.076;2023-06-22T10:02:31;101940.16;;;27.42;100.00
74163;BME280;62515;52.758;5.076;2023-06-22T10:04:58;101941.09;;;27.64;100.00
74163;BME280;62515;52.758;5.076;2023-06-22T10:07:25;101907.03;;;27.94;100.00
74163;BME280;62515;52.758;5.076;2023-06-22T10:09:52;101926.06;;;28.02;100.00
74163;BME280;62515;52.758;5.076;2023-06-22T10:12:19;101943.22;;;27.68;100.00
74163;BME280;62515;52.758;5.076;2023-06-22T10:14:46;101936.66;;;28.33;100.00
74163;BME280;62515;52.758;5.076;2023-06-22T10:17:13;101936.91;;;28.10;100.00
74163;BME280;62515;52.758;5.076;2023-06-22T10:19:41;101930.13;;;28.34;100.00
74163;BME280;62515;52.758;5.076;2023-06-22T10:22:08;101901.31;;;28.10;100.00
74163;BME280;62515;52.758;5.076;2023-06-22T10:24:35;101935.28;;;27.73;100.00
74163;BME280;62515;52.758;5.076;2023-06-22T10:27:03;101928.97;;;27.01;100.00
74163;BME280;62515;52.758;5.076;2023-06-22T10:29:30;101934.22;;;27.17;100.00
74163;BME280;62515;52.758;5.076;2023-06-22T10:31:56;101915.47;;;28.41;100.00
74163;BME280;62515;52.758;5.076;2023-06-22T10:34:23;101919.22;;;28.68;100.00
74163;BME280;62515;52.758;5.076;2023-06-22T10:36:51;101880.88;;;27.85;100.00
74163;BME280;62515;52.758;5.076;2023-06-22T10:39:18;101914.69;;;28.54;100.00
74163;BME280;62515;52.758;5.076;2023-06-22T10:41:45;101915.03;;;27.32;100.00
74163;BME280;62515;52.758;5.076;2023-06-22T10:44:12;101910.78;;;27.44;100.00
74163;BME280;62515;52.758;5.076;2023-06-22T10:46:39;101908.69;;;27.46;100.00
74163;BME280;62515;52.758;5.076;2023-06-22T10:49:06;101906.34;;;27.64;100.00
74163;BME280;62515;52.758;5.076;2023-06-22T10:51:37;101910.28;;;28.04;100.00
74163;BME280;62515;52.758;5.076;2023-06-22T10:54:05;101915.41;;;27.65;100.00
74163;BME280;62515;52.758;5.076;2023-06-22T10:56:32;101915.47;;;27.35;100.00
74163;BME280;62515;52.758;5.076;2023-06-22T10:58:59;101906.03;;;27.74;100.00
74163;BME280;62515;52.758;5.076;2023-06-22T11:01:25;101921.72;;;27.86;100.00
74163;BME280;62515;52.758;5.076;2023-06-22T11:04:02;101922.44;;;27.95;100.00
74163;BME280;62515;52.758;5.076;2023-06-22T11:06:29;101916.44;;;28.06;100.00
74163;BME280;62515;52.758;5.076;2023-06-22T11:08:56;101923.41;;;28.64;100.00
74163;BME280;62515;52.758;5.076;2023-06-22T11:11:33;101923.25;;;28.72;100.00
74163;BME280;62515;52.758;5.076;2023-06-22T11:14:00;101913.81;;;28.47;100.00
74163;BME280;62515;52.758;5.076;2023-06-22T11:16:27;101913.19;;;28.86;100.00
74163;BME280;62515;52.758;5.076;2023-06-22T11:18:54;101910.75;;;29.65;100.00
74163;BME280;62515;52.758;5.076;2023-06-22T11:21:21;101912.22;;;28.31;100.00
74163;BME280;62515;52.758;5.076;2023-06-22T11:23:48;101912.25;;;28.10;100.00
74163;BME280;62515;52.758;5.076;2023-06-22T11:26:14;101909.31;;;28.39;100.00
74163;BME280;62515;52.758;5.076;2023-06-22T11:28:43;101909.16;;;27.92;100.00
74163;BME280;62515;52.758;5.076;2023-06-22T11:31:09;101901.91;;;28.33;100.00
74163;BME280;62515;52.758;5.076;2023-06-22T11:33:56;101895.53;;;27.77;100.00
74163;BME280;62515;52.758;5.076;2023-06-22T11:36:23;101899.63;;;27.88;100.00
74163;BME280;62515;52.758;5.076;2023-06-22T11:38:50;101895.88;;;27.68;100.00
74163;BME280;62515;52.758;5.076;2023-06-22T11:41:17;101892.72;;;27.92;100.00
74163;BME280;62515;52.758;5.076;2023-06-22T11:43:45;101880.13;;;27.48;100.00
74163;BME280;62515;52.758;5.076;2023-06-22T11:46:12;101897.91;;;26.87;100.00
74163;BME280;62515;52.758;5.076;2023-06-22T11:48:39;101884.53;;;26.11;100.00
74163;BME280;62515;52.758;5.076;2023-06-22T11:51:05;101884.31;;;25.98;100.00
74163;BME280;62515;52.758;5.076;2023-06-22T11:53:32;101887.06;;;26.35;100.00
74163;BME280;62515;52.758;5.076;2023-06-22T11:56:00;101887.44;;;25.95;100.00
74163;BME280;62515;52.758;5.076;2023-06-22T11:58:27;101874.69;;;26.10;100.00
74163;BME280;62515;52.758;5.076;2023-06-22T12:00:56;101883.63;;;26.04;100.00
74163;BME280;62515;52.758;5.076;2023-06-22T12:03:23;101871.56;;;26.13;100.00
74163;BME280;62515;52.758;5.076;2023-06-22T12:05:50;101830.34;;;25.93;100.00
74163;BME280;62515;52.758;5.076;2023-06-22T12:08:17;101844.72;;;25.87;100.00
74163;BME280;62515;52.758;5.076;2023-06-22T12:10:44;101867.63;;;26.01;100.00
74163;BME280;62515;52.758;5.076;2023-06-22T12:13:11;101870.31;;;26.24;100.00
74163;BME280;62515;52.758;5.076;2023-06-22T12:15:38;101873.63;;;25.96;100.00
74163;BME280;62515;52.758;5.076;2023-06-22T12:18:06;101866.19;;;26.05;100.00
74163;BME280;62515;52.758;5.076;2023-06-22T12:20:33;101864.38;;;25.83;100.00
74163;BME280;62515;52.758;5.076;2023-06-22T12:23:00;101865.44;;;25.96;100.00
74163;BME280;62515;52.758;5.076;2023-06-22T12:25:27;101854.06;;;25.56;100.00
74163;BME280;62515;52.758;5.076;2023-06-22T12:27:53;101845.75;;;25.72;100.00
74163;BME280;62515;52.758;5.076;2023-06-22T12:30:20;101852.38;;;25.46;100.00
74163;BME280;62515;52.758;5.076;2023-06-22T12:32:47;101861.22;;;25.48;100.00
74163;BME280;62515;52.758;5.076;2023-06-22T12:35:15;101850.22;;;25.19;100.00
74163;BME280;62515;52.758;5.076;2023-06-22T12:37:45;101822.69;;;24.83;100.00
74163;BME280;62515;52.758;5.076;2023-06-22T12:40:12;101852.44;;;25.16;100.00
74163;BME280;62515;52.758;5.076;2023-06-22T12:42:39;101852.81;;;24.74;100.00